createdAt,value
2022-08-09T00:00:20.975Z,3.00
2022-08-09T00:02:49.836Z,2.80
2022-08-09T00:06:19.427Z,3.40
2022-08-09T00:08:10.217Z,3.55
2022-08-09T00:10:38.762Z,3.28
2022-08-09T00:13:16.738Z,3.35
2022-08-09T00:15:57.999Z,3.88
2022-08-09T00:18:31.259Z,3.35
2022-08-09T00:20:58.471Z,3.25
2022-08-09T00:23:56.506Z,3.08
2022-08-09T00:26:12.455Z,3.25
2022-08-09T00:28:41.558Z,3.65
2022-08-09T00:31:59.991Z,3.50
2022-08-09T00:34:10.897Z,3.13
2022-08-09T00:36:38.076Z,4.15
2022-08-09T00:39:10.957Z,3.80
2022-08-09T00:44:16.790Z,3.95
2022-08-09T00:44:47.028Z,3.95
2022-08-09T00:47:15.514Z,4.32
2022-08-09T00:49:43.852Z,3.80
2022-08-09T00:52:19.603Z,3.55
2022-08-09T00:54:48.558Z,3.80
2022-08-09T00:57:24.796Z,4.13
2022-08-09T01:00:21.411Z,3.60
2022-08-09T01:03:24.330Z,4.05
2022-08-09T01:06:21.600Z,3.83
2022-08-09T01:08:51.627Z,4.32
2022-08-09T01:11:36.587Z,4.20
2022-08-09T01:16:39.636Z,4.55
2022-08-09T01:19:42.622Z,4.13
2022-08-09T01:22:51.960Z,4.47
2022-08-09T01:25:32.976Z,3.90
2022-08-09T01:28:09.958Z,4.63
2022-08-09T01:30:51.525Z,4.68
2022-08-09T01:33:24.288Z,5.07
2022-08-09T01:36:05.996Z,4.95
2022-08-09T01:38:44.269Z,4.85
2022-08-09T01:41:25.761Z,4.90
2022-08-09T01:43:56.506Z,5.03
2022-08-09T01:46:48.497Z,6.30
2022-08-09T01:49:21.002Z,4.95
2022-08-09T01:52:07.217Z,5.20
2022-08-09T01:54:42.042Z,5.22
2022-08-09T01:57:22.665Z,5.57
2022-08-09T01:59:52.808Z,5.28
2022-08-09T02:02:31.147Z,5.60
2022-08-09T02:05:05.624Z,5.85
2022-08-09T02:08:41.015Z,5.13
2022-08-09T02:10:38.349Z,5.85
2022-08-09T02:13:08.568Z,4.72
2022-08-09T02:15:49.246Z,5.30
2022-08-09T02:18:24.092Z,5.63
2022-08-09T02:21:07.811Z,5.07
2022-08-09T02:23:49.454Z,5.57
2022-08-09T02:26:25.133Z,5.60
2022-08-09T02:28:59.646Z,5.57
2022-08-09T02:31:34.177Z,5.80
2022-08-09T02:34:13.165Z,5.95
2022-08-09T02:36:49.022Z,6.05
2022-08-09T02:39:39.762Z,5.28
2022-08-09T02:42:13.189Z,5.65
2022-08-09T02:44:52.619Z,5.35
2022-08-09T02:47:22.291Z,5.57
2022-08-09T02:50:01.512Z,5.65
2022-08-09T02:52:40.811Z,6.05
2022-08-09T02:55:20.264Z,5.80
2022-08-09T02:58:00.052Z,5.63
2022-08-09T03:00:39.540Z,5.65
2022-08-09T03:03:37.137Z,5.97
2022-08-09T03:06:15.105Z,5.88
2022-08-09T03:08:46.338Z,6.10
2022-08-09T03:11:29.693Z,6.82
2022-08-09T03:14:05.512Z,6.28
2022-08-09T03:16:37.387Z,6.43
2022-08-09T03:19:14.483Z,6.30
2022-08-09T03:21:57.041Z,5.65
2022-08-09T03:24:42.428Z,6.57
2022-08-09T03:27:13.550Z,6.38
2022-08-09T03:29:58.105Z,6.53
2022-08-09T03:32:31.570Z,6.93
2022-08-09T03:34:59.637Z,6.20
2022-08-09T03:37:54.530Z,6.47
2022-08-09T03:40:17.834Z,6.03
2022-08-09T03:42:45.706Z,6.30
2022-08-09T03:45:13.583Z,5.80
2022-08-09T03:47:46.372Z,5.35
2022-08-09T03:50:18.961Z,5.90
2022-08-09T03:52:57.993Z,5.80
2022-08-09T03:55:26.583Z,5.70
2022-08-09T03:58:03.456Z,6.38
2022-08-09T04:00:38.736Z,5.63
2022-08-09T04:03:07.645Z,5.70
2022-08-09T04:05:40.540Z,5.57
2022-08-09T04:08:07.613Z,5.53
2022-08-09T04:10:35.722Z,4.95
2022-08-09T04:13:09.490Z,4.80
2022-08-09T04:16:17.751Z,5.32
2022-08-09T04:18:26.522Z,5.20
2022-08-09T04:20:55.439Z,4.50
2022-08-09T04:23:24.941Z,4.80
2022-08-09T04:25:54.552Z,5.40
2022-08-09T04:28:33.647Z,4.50
2022-08-09T04:31:07.705Z,4.70
2022-08-09T04:33:47.198Z,5.25
2022-08-09T04:36:24.974Z,5.07
2022-08-09T04:38:53.080Z,4.50
2022-08-09T04:41:23.687Z,4.95
2022-08-09T04:44:04.860Z,4.90
2022-08-09T04:46:57.605Z,4.25
2022-08-09T04:49:22.365Z,4.93
2022-08-09T04:51:57.277Z,4.38
2022-08-09T04:54:24.093Z,5.10
2022-08-09T04:56:50.985Z,4.72
2022-08-09T04:59:17.841Z,4.72
2022-08-09T05:01:49.575Z,4.90
2022-08-09T05:04:17.201Z,4.75
2022-08-09T05:06:44.160Z,4.70
2022-08-09T05:09:11.106Z,4.78
2022-08-09T05:11:39.899Z,4.72
2022-08-09T05:14:10.404Z,4.78
2022-08-09T05:16:57.964Z,5.00
2022-08-09T05:22:28.307Z,4.65
2022-08-09T05:25:02.680Z,4.72
2022-08-09T05:27:31.017Z,4.43
2022-08-09T05:29:59.020Z,4.30
2022-08-09T05:32:30.055Z,3.72
2022-08-09T05:34:57.363Z,4.15
2022-08-09T05:37:25.261Z,4.80
2022-08-09T05:39:52.499Z,3.72
2022-08-09T05:42:21.966Z,4.35
2022-08-09T05:44:55.583Z,4.00
2022-08-09T05:47:25.077Z,3.97
2022-08-09T05:50:30.197Z,4.30
2022-08-09T05:52:53.502Z,4.63
2022-08-09T05:55:21.825Z,4.07
2022-08-09T05:57:57.595Z,3.80
2022-08-09T06:00:32.959Z,3.70
2022-08-09T06:03:02.227Z,3.85
2022-08-09T06:05:57.450Z,3.78
2022-08-09T06:08:19.394Z,4.25
2022-08-09T06:10:51.576Z,3.63
2022-08-09T06:13:20.859Z,4.43
2022-08-09T06:15:51.813Z,4.22
2022-08-09T06:18:25.197Z,3.80
2022-08-09T06:20:57.151Z,3.07
2022-08-09T06:23:57.207Z,3.15
2022-08-09T06:26:22.461Z,3.70
2022-08-09T06:28:59.608Z,3.03
2022-08-09T06:31:31.175Z,3.35
2022-08-09T06:34:06.587Z,2.78
2022-08-09T06:36:34.424Z,4.13
2022-08-09T06:39:02.738Z,4.28
2022-08-09T06:42:07.787Z,3.70
2022-08-09T06:44:23.128Z,3.83
2022-08-09T06:46:54.957Z,2.58
2022-08-09T06:49:44.894Z,3.05
2022-08-09T06:52:10.813Z,1.98
2022-08-09T06:54:39.169Z,2.58
2022-08-09T06:57:08.609Z,2.10
2022-08-09T07:00:50.919Z,2.13
2022-08-09T07:02:29.232Z,2.65
2022-08-09T07:04:57.900Z,1.77
2022-08-09T07:08:00.961Z,1.48
2022-08-09T07:10:29.531Z,1.10
2022-08-09T07:12:58.559Z,1.52
2022-08-09T07:16:39.532Z,1.33
2022-08-09T07:18:14.282Z,1.00
2022-08-09T07:20:43.488Z,0.88
2022-08-09T07:23:18.712Z,1.30
2022-08-09T07:25:52.357Z,1.73
2022-08-09T07:28:26.338Z,1.20
2022-08-09T07:30:55.561Z,0.80
2022-08-09T07:33:23.176Z,0.70
2022-08-09T07:35:53.991Z,0.43
2022-08-09T07:38:23.394Z,0.70
2022-08-09T07:41:11.482Z,0.80
2022-08-09T07:43:41.335Z,0.60
2022-08-09T07:46:19.395Z,0.80
2022-08-09T07:48:52.867Z,0.70
2022-08-09T07:52:04.835Z,0.68
2022-08-09T07:54:14.537Z,1.40
2022-08-09T07:56:49.085Z,1.20
2022-08-09T07:59:34.572Z,0.75
2022-08-09T08:02:09.341Z,0.50
2022-08-09T08:04:37.254Z,1.10
2022-08-09T08:07:15.347Z,1.40
2022-08-09T08:09:55.110Z,0.70
2022-08-09T08:12:36.804Z,0.52
2022-08-09T08:15:05.114Z,1.40
2022-08-09T08:17:54.106Z,2.00
2022-08-09T08:20:27.322Z,0.93
2022-08-09T08:23:01.273Z,0.93
2022-08-09T08:25:43.768Z,0.50
2022-08-09T08:28:14.464Z,0.65
2022-08-09T08:30:43.213Z,1.52
2022-08-09T08:33:11.676Z,1.33
2022-08-09T08:35:59.734Z,0.43
2022-08-09T08:38:26.330Z,0.85
2022-08-09T08:40:56.372Z,0.50
2022-08-09T08:43:27.892Z,0.47
2022-08-09T08:46:09.877Z,0.55
2022-08-09T08:48:51.443Z,0.35
2022-08-09T08:51:25.077Z,0.90
2022-08-09T08:54:03.810Z,0.95
2022-08-09T08:56:35.432Z,0.40
2022-08-09T08:59:19.987Z,0.52
2022-08-09T09:01:53.247Z,0.60
2022-08-09T09:04:31.104Z,1.48
2022-08-09T09:07:08.158Z,0.70
2022-08-09T09:09:58.487Z,0.70
2022-08-09T09:12:29.224Z,0.65
2022-08-09T09:14:59.457Z,0.52
2022-08-09T09:17:46.418Z,0.50
2022-08-09T09:20:15.356Z,0.30
2022-08-09T09:23:01.697Z,0.47
2022-08-09T09:26:03.711Z,0.32
2022-08-09T09:29:01.857Z,0.30
2022-08-09T09:32:06.145Z,0.40
2022-08-09T09:34:14.661Z,0.50
2022-08-09T09:36:52.925Z,0.60
2022-08-09T09:39:23.591Z,0.50
2022-08-09T09:42:25.987Z,0.47
2022-08-09T09:45:02.958Z,0.40
2022-08-09T09:47:32.636Z,0.40
2022-08-09T09:50:14.755Z,0.60
2022-08-09T09:52:56.061Z,0.40
2022-08-09T09:55:31.249Z,0.30
2022-08-09T09:58:19.340Z,0.50
2022-08-09T10:00:54.059Z,0.50
2022-08-09T10:03:59.561Z,0.65
2022-08-09T10:09:02.955Z,0.57
2022-08-09T10:12:01.143Z,0.50
2022-08-09T10:14:33.044Z,0.43
2022-08-09T10:17:50.896Z,0.45
2022-08-09T10:20:00.633Z,0.30
2022-08-09T10:22:33.741Z,0.30
2022-08-09T10:27:45.137Z,0.50
2022-08-09T10:34:08.940Z,0.60
2022-08-09T10:36:01.112Z,0.22
2022-08-09T10:38:55.031Z,0.40
2022-08-09T10:41:18.673Z,1.38
2022-08-09T10:43:59.500Z,0.77
2022-08-09T10:47:01.510Z,0.43
2022-08-09T10:49:54.178Z,0.90
2022-08-09T10:52:26.490Z,0.40
2022-08-09T10:54:54.156Z,0.30
2022-08-09T10:57:23.358Z,0.20
2022-08-09T10:59:58.165Z,0.52
2022-08-09T11:03:15.880Z,0.60
2022-08-09T11:05:30.460Z,0.40
2022-08-09T11:08:40.829Z,0.60
2022-08-09T11:11:18.324Z,0.45
2022-08-09T11:13:50.384Z,0.40
2022-08-09T11:16:37.776Z,1.25
2022-08-09T11:19:09.834Z,0.38
2022-08-09T11:21:57.365Z,0.40
2022-08-09T11:25:08.100Z,0.50
2022-08-09T11:28:03.147Z,0.30
2022-08-09T11:30:33.399Z,0.40
2022-08-09T11:33:13.409Z,0.45
2022-08-09T11:35:56.367Z,0.43
2022-08-09T11:38:32.034Z,0.50
2022-08-09T11:41:38.028Z,0.40
2022-08-09T11:44:05.543Z,0.52
2022-08-09T11:46:53.091Z,0.35
2022-08-09T11:50:55.534Z,0.32
2022-08-09T11:53:28.226Z,0.40
2022-08-09T11:56:14.306Z,0.38
2022-08-09T11:59:00.218Z,0.45
2022-08-09T12:02:16.396Z,0.40
2022-08-09T12:04:28.801Z,0.35
2022-08-09T12:07:08.437Z,0.30
2022-08-09T12:09:36.343Z,0.80
2022-08-09T12:12:13.088Z,0.40
2022-08-09T12:15:04.375Z,0.40
2022-08-09T12:17:44.541Z,0.40
2022-08-09T12:20:21.812Z,0.40
2022-08-09T12:22:58.136Z,0.30
2022-08-09T12:25:31.839Z,0.40
2022-08-09T12:29:11.406Z,0.50
2022-08-09T12:31:02.944Z,0.50
2022-08-09T12:33:59.096Z,0.50
2022-08-09T12:36:33.495Z,0.47
2022-08-09T12:39:01.683Z,0.40
2022-08-09T12:41:38.941Z,0.45
2022-08-09T12:44:09.973Z,0.50
2022-08-09T12:46:48.764Z,0.30
2022-08-09T12:49:17.385Z,0.35
2022-08-09T12:52:00.582Z,0.47
2022-08-09T12:54:29.096Z,0.38
2022-08-09T12:56:58.946Z,0.40
2022-08-09T12:59:57.757Z,0.38
2022-08-09T13:02:17.660Z,0.35
2022-08-09T13:05:02.524Z,0.50
2022-08-09T13:07:51.218Z,0.40
2022-08-09T13:10:17.520Z,0.30
2022-08-09T13:13:08.931Z,0.45
2022-08-09T13:15:36.174Z,0.50
2022-08-09T13:18:06.106Z,0.30
2022-08-09T13:22:33.100Z,0.68
2022-08-09T13:24:17.304Z,0.30
2022-08-09T13:26:37.228Z,0.45
2022-08-09T13:29:18.167Z,0.70
2022-08-09T13:32:16.569Z,0.45
2022-08-09T13:34:46.940Z,0.40
2022-08-09T13:37:24.497Z,0.32
2022-08-09T13:41:50.483Z,0.60
2022-08-09T13:42:50.857Z,0.40
2022-08-09T13:45:18.060Z,0.40
2022-08-09T13:47:52.679Z,0.38
2022-08-09T13:50:30.668Z,0.40
2022-08-09T13:55:29.083Z,0.50
2022-08-09T13:57:58.357Z,0.50
2022-08-09T14:00:29.322Z,0.40
2022-08-09T14:03:04.263Z,0.40
2022-08-09T14:06:01.354Z,0.47
2022-08-09T14:08:31.397Z,0.50
2022-08-09T14:10:59.401Z,0.50
2022-08-09T14:14:14.818Z,0.40
2022-08-09T14:16:17.068Z,0.38
2022-08-09T14:18:49.122Z,0.73
2022-08-09T14:21:20.298Z,0.50
2022-08-09T14:23:55.027Z,0.40
2022-08-09T14:26:31.766Z,0.40
2022-08-09T14:29:08.050Z,0.50
2022-08-09T14:31:53.907Z,0.50
2022-08-09T14:34:30.773Z,0.40
2022-08-09T14:37:05.911Z,0.30
2022-08-09T14:39:47.255Z,0.38
2022-08-09T14:42:40.744Z,0.70
2022-08-09T14:46:40.226Z,0.45
2022-08-09T14:47:59.619Z,0.40
2022-08-09T14:50:32.605Z,0.57
2022-08-09T14:53:01.818Z,0.40
2022-08-09T14:55:32.736Z,0.40
2022-08-09T14:58:03.091Z,0.60
2022-08-09T15:00:31.792Z,0.47
2022-08-09T15:03:00.168Z,0.95
2022-08-09T15:05:27.297Z,0.63
2022-08-09T15:07:58.295Z,0.68
2022-08-09T15:10:27.058Z,0.73
2022-08-09T15:12:56.435Z,0.60
2022-08-09T15:15:24.305Z,0.57
2022-08-09T15:17:55.866Z,0.50
2022-08-09T15:21:56.529Z,0.75
2022-08-09T15:24:05.774Z,0.65
2022-08-09T15:25:58.409Z,0.60
2022-08-09T15:28:28.478Z,0.40
2022-08-09T15:31:07.387Z,0.50
2022-08-09T15:34:18.264Z,0.30
2022-08-09T15:36:29.421Z,0.52
2022-08-09T15:39:00.981Z,0.30
2022-08-09T15:41:32.102Z,0.52
2022-08-09T15:44:01.998Z,0.88
2022-08-09T15:46:34.540Z,0.60
2022-08-09T15:49:21.612Z,0.47
2022-08-09T15:52:03.288Z,0.30
2022-08-09T15:54:44.701Z,1.25
2022-08-09T15:57:13.930Z,0.40
2022-08-09T15:59:42.879Z,0.52
2022-08-09T16:02:13.316Z,0.38
2022-08-09T16:04:42.752Z,0.40
2022-08-09T16:07:11.512Z,0.30
2022-08-09T16:09:57.937Z,0.35
2022-08-09T16:12:31.099Z,0.47
2022-08-09T16:14:58.172Z,0.63
2022-08-09T16:17:28.903Z,0.47
2022-08-09T16:20:08.750Z,0.40
2022-08-09T16:22:42.064Z,0.55
2022-08-09T16:25:11.759Z,0.40
2022-08-09T16:27:40.763Z,0.73
2022-08-09T16:30:14.944Z,0.60
2022-08-09T16:33:04.538Z,0.60
2022-08-09T16:35:56.063Z,0.50
2022-08-09T16:38:19.273Z,0.50
2022-08-09T16:40:49.500Z,0.57
2022-08-09T16:43:16.384Z,0.40
2022-08-09T16:45:45.426Z,0.63
2022-08-09T16:48:41.704Z,0.68
2022-08-09T16:51:08.514Z,0.50
2022-08-09T16:54:09.056Z,0.65
2022-08-09T16:56:32.086Z,0.55
2022-08-09T16:59:10.212Z,0.55
2022-08-09T17:01:37.671Z,0.47
2022-08-09T17:04:06.765Z,0.60
2022-08-09T17:08:41.606Z,0.70
2022-08-09T17:09:44.401Z,0.70
2022-08-09T17:12:08.897Z,0.80
2022-08-09T17:14:35.803Z,0.52
2022-08-09T17:17:23.350Z,0.70
2022-08-09T17:20:29.847Z,1.20
2022-08-09T17:22:50.198Z,0.50
2022-08-09T17:25:19.279Z,0.32
2022-08-09T17:27:49.070Z,0.40
2022-08-09T17:32:52.564Z,0.47
2022-08-09T17:35:19.402Z,0.50
2022-08-09T17:38:12.905Z,0.40
2022-08-09T17:40:35.243Z,0.40
2022-08-09T17:43:32.025Z,0.40
2022-08-09T17:46:03.389Z,0.45
2022-08-09T17:48:32.097Z,0.65
2022-08-09T17:51:08.958Z,0.60
2022-08-09T17:53:51.489Z,0.40
2022-08-09T17:56:21.017Z,0.40
2022-08-09T17:58:47.876Z,0.52
2022-08-09T18:01:15.576Z,0.60
2022-08-09T18:03:52.359Z,0.60
2022-08-09T18:06:28.850Z,0.30
2022-08-09T18:09:01.867Z,0.25
2022-08-09T18:12:05.834Z,0.40
2022-08-09T18:14:23.111Z,0.47
2022-08-09T18:16:50.915Z,0.25
2022-08-09T18:20:57.184Z,0.43
2022-08-09T18:22:16.914Z,0.43
2022-08-09T18:24:45.751Z,0.50
2022-08-09T18:27:49.163Z,0.45
2022-08-09T18:30:42.604Z,0.50
2022-08-09T18:32:54.708Z,0.40
2022-08-09T18:35:58.014Z,0.50
2022-08-09T18:38:09.825Z,0.45
2022-08-09T18:40:43.104Z,0.35
2022-08-09T18:43:15.786Z,0.30
2022-08-09T18:46:46.027Z,0.47
2022-08-09T18:48:32.764Z,0.30
2022-08-09T18:51:00.948Z,0.82
2022-08-09T18:53:34.565Z,0.35
2022-08-09T18:56:16.685Z,0.30
2022-08-09T18:58:45.206Z,0.35
2022-08-09T19:01:12.100Z,0.38
2022-08-09T19:04:01.583Z,0.30
2022-08-09T19:06:27.936Z,0.30
2022-08-09T19:09:02.855Z,0.50
2022-08-09T19:11:37.649Z,0.80
2022-08-09T19:14:06.690Z,0.40
2022-08-09T19:16:36.706Z,0.60
2022-08-09T19:19:19.292Z,0.50
2022-08-09T19:22:04.661Z,0.50
2022-08-09T19:24:39.292Z,0.22
2022-08-09T19:27:20.540Z,0.40
2022-08-09T19:30:23.801Z,0.40
2022-08-09T19:32:36.785Z,0.40
2022-08-09T19:35:04.471Z,0.80
2022-08-09T19:37:41.093Z,0.60
2022-08-09T19:40:19.365Z,0.40
2022-08-09T19:42:48.992Z,0.50
2022-08-09T19:45:17.004Z,1.58
2022-08-09T19:47:44.705Z,0.65
2022-08-09T19:50:48.847Z,0.40
2022-08-09T19:53:04.133Z,0.50
2022-08-09T19:56:01.888Z,0.47
2022-08-09T19:58:29.549Z,0.52
2022-08-09T20:00:57.774Z,0.68
2022-08-09T20:04:09.708Z,0.60
2022-08-09T20:06:23.372Z,0.60
2022-08-09T20:08:56.976Z,0.40
2022-08-09T20:11:43.236Z,0.35
2022-08-09T20:14:16.460Z,0.57
2022-08-09T20:16:53.399Z,0.60
2022-08-09T20:19:48.750Z,0.50
2022-08-09T20:22:10.046Z,0.55
2022-08-09T20:24:37.452Z,0.60
2022-08-09T20:27:08.904Z,0.28
2022-08-09T20:29:39.345Z,0.50
2022-08-09T20:32:28.793Z,0.40
2022-08-09T20:34:56.618Z,0.60
2022-08-09T20:37:23.795Z,0.90
2022-08-09T20:40:15.889Z,1.10
2022-08-09T20:42:38.048Z,0.98
2022-08-09T20:46:00.317Z,0.88
2022-08-09T20:47:54.223Z,0.77
2022-08-09T20:50:47.270Z,0.80
2022-08-09T20:53:35.042Z,0.60
2022-08-09T20:56:02.557Z,0.50
2022-08-09T20:58:32.505Z,0.60
2022-08-09T21:01:32.628Z,0.60
2022-08-09T21:05:48.993Z,0.40
2022-08-09T21:06:42.502Z,0.50
2022-08-09T21:09:11.813Z,0.43
2022-08-09T21:14:30.818Z,0.40
2022-08-09T21:16:59.373Z,0.50
2022-08-09T21:20:18.681Z,0.70
2022-08-09T21:22:36.009Z,0.65
2022-08-09T21:25:20.853Z,0.80
2022-08-09T21:28:01.521Z,0.47
2022-08-09T21:30:28.528Z,0.55
2022-08-09T21:32:57.182Z,0.60
2022-08-09T21:35:24.213Z,0.60
2022-08-09T21:37:59.869Z,0.68
2022-08-09T21:40:30.880Z,0.80
2022-08-09T21:43:07.044Z,0.70
2022-08-09T21:45:38.956Z,0.60
2022-08-09T21:48:07.491Z,0.55
2022-08-09T21:50:39.232Z,0.70
2022-08-09T21:53:15.583Z,0.70
2022-08-09T21:55:46.670Z,0.70
2022-08-09T21:58:14.165Z,0.70
2022-08-09T22:00:41.114Z,0.60
2022-08-09T22:03:19.274Z,0.70
2022-08-09T22:05:46.700Z,1.10
2022-08-09T22:08:18.755Z,0.70
2022-08-09T22:11:00.877Z,0.60
2022-08-09T22:13:37.145Z,0.80
2022-08-09T22:16:08.529Z,0.68
2022-08-09T22:18:54.554Z,0.90
2022-08-09T22:21:24.970Z,1.70
2022-08-09T22:24:01.570Z,0.40
2022-08-09T22:29:07.123Z,0.70
2022-08-09T22:31:35.901Z,0.60
2022-08-09T22:34:03.418Z,0.75
2022-08-09T22:36:45.477Z,0.82
2022-08-09T22:39:46.658Z,0.90
2022-08-09T22:42:00.195Z,0.88
2022-08-09T22:44:29.926Z,0.88
2022-08-09T22:48:12.675Z,0.98
2022-08-09T22:49:51.959Z,1.00
2022-08-09T22:52:19.794Z,0.90
2022-08-09T22:54:47.683Z,0.80
2022-08-09T22:57:15.094Z,0.98
2022-08-09T22:59:58.346Z,1.00
2022-08-09T23:02:27.249Z,1.00
2022-08-09T23:04:54.861Z,1.20
2022-08-09T23:08:27.324Z,1.10
2022-08-09T23:10:31.528Z,0.90
2022-08-09T23:12:59.699Z,0.90
2022-08-09T23:15:27.774Z,1.48
2022-08-09T23:17:55.203Z,1.20
2022-08-09T23:20:22.616Z,1.05
2022-08-09T23:22:49.537Z,1.27
2022-08-09T23:25:16.385Z,1.45
2022-08-09T23:27:57.254Z,1.42
2022-08-09T23:30:30.140Z,1.38
2022-08-09T23:32:57.087Z,1.55
2022-08-09T23:35:24.077Z,1.40
2022-08-09T23:37:50.918Z,1.90
2022-08-09T23:40:17.891Z,1.65
2022-08-09T23:42:44.904Z,1.85
2022-08-09T23:45:36.508Z,1.70
2022-08-09T23:47:58.808Z,1.70
2022-08-09T23:50:26.009Z,2.08
2022-08-09T23:52:52.958Z,1.90
2022-08-09T23:55:19.956Z,1.70
2022-08-09T23:58:07.260Z,1.75
